createdAt,value
2022-10-13T00:01:17.135Z,76.74
2022-10-13T00:03:47.660Z,76.53
2022-10-13T00:06:24.457Z,76.50
2022-10-13T00:08:53.028Z,76.60
2022-10-13T00:11:24.779Z,76.90
2022-10-13T00:13:59.623Z,76.96
2022-10-13T00:16:32.267Z,76.94
2022-10-13T00:19:00.041Z,77.09
2022-10-13T00:21:28.644Z,77.14
2022-10-13T00:23:56.796Z,77.02
2022-10-13T00:26:26.015Z,77.16
2022-10-13T00:28:55.386Z,77.34
2022-10-13T00:31:31.570Z,77.46
2022-10-13T00:34:00.886Z,77.43
2022-10-13T00:36:29.227Z,77.54
2022-10-13T00:38:58.072Z,77.47
2022-10-13T00:41:25.907Z,77.58
2022-10-13T00:44:10.750Z,77.85
2022-10-13T00:46:38.269Z,78.23
2022-10-13T00:49:14.335Z,78.12
2022-10-13T00:51:48.904Z,78.08
2022-10-13T00:54:23.624Z,77.89
2022-10-13T00:56:53.020Z,77.86
2022-10-13T00:59:26.557Z,77.71
2022-10-13T01:01:55.013Z,77.76
2022-10-13T01:04:28.037Z,77.77
2022-10-13T01:06:56.584Z,77.96
2022-10-13T01:09:24.139Z,78.27
2022-10-13T01:12:30.410Z,78.06
2022-10-13T01:15:23.738Z,77.90
2022-10-13T01:18:03.532Z,77.93
2022-10-13T01:20:47.084Z,77.97
2022-10-13T01:23:44.529Z,77.94
2022-10-13T01:26:40.585Z,78.08
2022-10-13T01:29:14.179Z,78.14
2022-10-13T01:32:00.390Z,78.21
2022-10-13T01:35:09.899Z,78.32
2022-10-13T01:37:52.407Z,78.34
2022-10-13T01:40:42.864Z,78.24
2022-10-13T01:43:19.421Z,78.04
2022-10-13T01:45:53.050Z,78.21
2022-10-13T01:48:22.087Z,78.14
2022-10-13T01:50:54.111Z,78.33
2022-10-13T01:53:23.591Z,78.58
2022-10-13T01:56:00.098Z,78.63
2022-10-13T01:58:32.498Z,78.88
2022-10-13T02:01:26.875Z,78.95
2022-10-13T02:04:10.324Z,78.87
2022-10-13T02:06:53.898Z,78.89
2022-10-13T02:09:29.330Z,78.88
2022-10-13T02:12:05.421Z,78.96
2022-10-13T02:14:38.110Z,79.14
2022-10-13T02:17:06.040Z,79.10
2022-10-13T02:19:38.740Z,79.10
2022-10-13T02:22:08.154Z,79.02
2022-10-13T02:24:35.903Z,78.97
2022-10-13T02:27:06.686Z,78.91
2022-10-13T02:29:34.476Z,78.97
2022-10-13T02:32:02.027Z,79.22
2022-10-13T02:34:29.632Z,79.27
2022-10-13T02:36:57.154Z,79.17
2022-10-13T02:39:24.727Z,79.31
2022-10-13T02:41:52.233Z,79.46
2022-10-13T02:44:21.009Z,79.60
2022-10-13T02:46:48.511Z,79.76
2022-10-13T02:49:16.046Z,79.51
2022-10-13T02:51:43.570Z,79.11
2022-10-13T02:54:11.082Z,79.46
2022-10-13T02:56:38.686Z,79.41
2022-10-13T02:59:06.282Z,79.50
2022-10-13T03:01:33.938Z,79.45
2022-10-13T03:04:01.516Z,79.55
2022-10-13T03:06:29.056Z,79.54
2022-10-13T03:08:56.653Z,79.59
2022-10-13T03:11:25.254Z,79.85
2022-10-13T03:13:53.073Z,80.22
2022-10-13T03:16:20.817Z,79.93
2022-10-13T03:18:48.361Z,79.97
2022-10-13T03:21:15.867Z,80.08
2022-10-13T03:23:43.744Z,79.98
2022-10-13T03:26:11.299Z,80.04
2022-10-13T03:28:38.862Z,80.36
2022-10-13T03:31:08.590Z,80.28
2022-10-13T03:33:36.315Z,80.18
2022-10-13T03:36:05.686Z,80.34
2022-10-13T03:38:34.764Z,80.42
2022-10-13T03:41:11.469Z,80.37
2022-10-13T03:43:40.229Z,80.42
2022-10-13T03:46:10.554Z,80.36
2022-10-13T03:48:38.372Z,80.61
2022-10-13T03:51:08.032Z,80.53
2022-10-13T03:53:36.018Z,80.42
2022-10-13T03:56:05.033Z,80.43
2022-10-13T03:58:35.054Z,80.20
2022-10-13T04:01:05.719Z,80.34
2022-10-13T04:03:34.570Z,80.58
2022-10-13T04:06:06.231Z,80.27
2022-10-13T04:08:33.961Z,80.26
2022-10-13T04:11:04.000Z,80.28
2022-10-13T04:13:31.952Z,80.42
2022-10-13T04:16:04.750Z,80.51
2022-10-13T04:18:32.821Z,80.64
2022-10-13T04:21:01.078Z,80.80
2022-10-13T04:23:28.569Z,81.19
2022-10-13T04:25:56.850Z,81.27
2022-10-13T04:28:24.785Z,81.19
2022-10-13T04:30:52.447Z,81.34
2022-10-13T04:33:19.977Z,81.11
2022-10-13T04:35:47.519Z,81.19
2022-10-13T04:38:15.040Z,81.19
2022-10-13T04:40:42.555Z,81.19
2022-10-13T04:43:10.164Z,81.20
2022-10-13T04:45:37.700Z,81.32
2022-10-13T04:48:05.511Z,81.33
2022-10-13T04:50:33.043Z,81.41
2022-10-13T04:53:01.262Z,81.62
2022-10-13T04:55:28.781Z,81.63
2022-10-13T04:57:56.854Z,81.47
2022-10-13T05:00:24.483Z,81.48
2022-10-13T05:02:52.327Z,81.70
2022-10-13T05:05:19.909Z,81.63
2022-10-13T05:07:47.416Z,81.55
2022-10-13T05:10:15.050Z,81.52
2022-10-13T05:12:42.617Z,81.26
2022-10-13T05:15:10.366Z,81.29
2022-10-13T05:17:37.934Z,81.46
2022-10-13T05:20:09.943Z,81.58
2022-10-13T05:22:37.804Z,81.89
2022-10-13T05:25:05.601Z,82.02
2022-10-13T05:27:33.178Z,82.23
2022-10-13T05:30:01.611Z,81.85
2022-10-13T05:32:29.153Z,81.43
2022-10-13T05:34:56.903Z,81.51
2022-10-13T05:37:24.481Z,81.52
2022-10-13T05:39:52.005Z,81.60
2022-10-13T05:42:20.019Z,81.44
2022-10-13T05:44:47.844Z,81.59
2022-10-13T05:47:15.410Z,81.53
2022-10-13T05:49:42.921Z,81.65
2022-10-13T05:52:12.733Z,81.74
2022-10-13T05:54:44.089Z,82.02
2022-10-13T05:57:24.485Z,81.91
2022-10-13T05:59:56.782Z,81.91
2022-10-13T06:02:28.273Z,81.91
2022-10-13T06:04:57.817Z,81.89
2022-10-13T06:07:25.713Z,81.89
2022-10-13T06:09:53.300Z,82.15
2022-10-13T06:13:09.785Z,82.07
2022-10-13T06:15:37.283Z,81.87
2022-10-13T06:18:10.124Z,82.02
2022-10-13T06:20:37.827Z,82.12
2022-10-13T06:23:05.658Z,81.94
2022-10-13T06:25:33.459Z,82.05
2022-10-13T06:28:01.126Z,82.11
2022-10-13T06:30:29.137Z,82.01
2022-10-13T06:32:58.194Z,82.21
2022-10-13T06:35:32.521Z,82.11
2022-10-13T06:38:00.081Z,82.12
2022-10-13T06:40:27.743Z,82.19
2022-10-13T06:42:55.404Z,82.12
2022-10-13T06:45:23.232Z,82.23
2022-10-13T06:47:53.792Z,82.34
2022-10-13T06:50:24.837Z,82.48
2022-10-13T06:52:52.414Z,82.59
2022-10-13T06:55:20.102Z,83.01
2022-10-13T06:57:47.706Z,83.14
2022-10-13T07:00:15.372Z,83.33
2022-10-13T07:02:44.518Z,83.41
2022-10-13T07:05:13.425Z,83.45
2022-10-13T07:07:41.178Z,83.60
2022-10-13T07:10:09.308Z,83.61
2022-10-13T07:12:37.897Z,83.63
2022-10-13T07:15:06.039Z,83.41
2022-10-13T07:17:33.586Z,83.42
2022-10-13T07:20:03.673Z,83.45
2022-10-13T07:22:35.124Z,83.15
2022-10-13T07:25:03.042Z,82.90
2022-10-13T07:27:30.553Z,82.88
2022-10-13T07:29:58.049Z,82.88
2022-10-13T07:32:25.578Z,82.65
2022-10-13T07:34:53.946Z,82.51
2022-10-13T07:37:22.252Z,82.49
2022-10-13T07:39:50.136Z,82.39
2022-10-13T07:42:17.841Z,82.21
2022-10-13T07:44:45.441Z,82.17
2022-10-13T07:47:16.905Z,82.10
2022-10-13T07:49:45.738Z,82.14
2022-10-13T07:52:13.340Z,82.15
2022-10-13T07:54:40.968Z,82.27
2022-10-13T07:57:10.635Z,82.67
2022-10-13T07:59:38.516Z,82.93
2022-10-13T08:02:10.919Z,82.77
2022-10-13T08:04:39.193Z,82.12
2022-10-13T08:07:06.921Z,81.88
2022-10-13T08:09:35.070Z,81.61
2022-10-13T08:12:03.684Z,81.24
2022-10-13T08:14:31.663Z,81.22
2022-10-13T08:16:59.417Z,81.09
2022-10-13T08:19:28.239Z,80.87
2022-10-13T08:21:58.871Z,80.88
2022-10-13T08:24:28.221Z,80.93
2022-10-13T08:26:56.332Z,80.75
2022-10-13T08:29:24.510Z,80.34
2022-10-13T08:31:53.652Z,80.59
2022-10-13T08:34:23.304Z,80.63
2022-10-13T08:36:54.243Z,80.63
2022-10-13T08:39:24.588Z,80.20
2022-10-13T08:41:54.095Z,79.74
2022-10-13T08:47:53.184Z,79.07
2022-10-13T08:50:25.097Z,78.91
2022-10-13T08:53:09.832Z,78.88
2022-10-13T08:55:45.133Z,78.96
2022-10-13T08:58:18.084Z,78.86
2022-10-13T09:00:46.761Z,78.07
2022-10-13T09:03:21.144Z,78.12
2022-10-13T09:06:02.825Z,77.89
2022-10-13T09:08:38.332Z,77.52
2022-10-13T09:11:09.733Z,77.37
2022-10-13T09:13:37.353Z,77.56
2022-10-13T09:16:05.239Z,77.61
2022-10-13T09:18:35.661Z,77.44
2022-10-13T09:21:12.051Z,76.99
2022-10-13T09:23:41.898Z,76.97
2022-10-13T09:26:19.066Z,76.49
2022-10-13T09:28:53.159Z,76.50
2022-10-13T09:31:28.301Z,75.92
2022-10-13T09:34:10.285Z,76.16
2022-10-13T09:36:38.210Z,75.97
2022-10-13T09:39:22.671Z,75.62
2022-10-13T09:41:50.543Z,75.64
2022-10-13T09:44:28.474Z,75.40
2022-10-13T09:46:59.195Z,74.98
2022-10-13T09:49:38.509Z,74.94
2022-10-13T09:52:17.735Z,74.91
2022-10-13T09:54:53.938Z,74.74
2022-10-13T09:57:30.424Z,74.80
2022-10-13T10:00:04.363Z,74.43
2022-10-13T10:02:58.313Z,73.70
2022-10-13T10:05:32.521Z,73.68
2022-10-13T10:08:14.564Z,73.82
2022-10-13T10:10:43.323Z,73.92
2022-10-13T10:13:12.603Z,73.05
2022-10-13T10:15:58.881Z,72.56
2022-10-13T10:18:58.463Z,72.99
2022-10-13T10:21:47.618Z,72.90
2022-10-13T10:24:32.864Z,72.53
2022-10-13T10:27:15.282Z,72.15
2022-10-13T10:30:04.581Z,72.18
2022-10-13T10:32:50.915Z,72.22
2022-10-13T10:35:37.080Z,72.10
2022-10-13T10:38:26.667Z,71.72
2022-10-13T10:41:16.053Z,71.16
2022-10-13T10:44:04.389Z,71.04
2022-10-13T10:46:36.436Z,71.05
2022-10-13T10:49:30.781Z,70.93
2022-10-13T10:52:01.609Z,70.61
2022-10-13T10:54:49.160Z,69.79
2022-10-13T10:57:29.365Z,69.99
2022-10-13T11:00:10.219Z,70.01
2022-10-13T11:02:40.866Z,69.93
2022-10-13T11:05:08.635Z,69.99
2022-10-13T11:07:39.122Z,69.14
2022-10-13T11:10:12.768Z,69.17
2022-10-13T11:12:57.157Z,68.63
2022-10-13T11:15:31.241Z,67.76
2022-10-13T11:17:58.814Z,67.18
2022-10-13T11:20:26.350Z,68.26
2022-10-13T11:22:59.994Z,67.68
2022-10-13T11:25:44.783Z,67.94
2022-10-13T11:28:44.216Z,66.70
2022-10-13T11:31:16.765Z,66.13
2022-10-13T11:33:47.973Z,66.27
2022-10-13T11:36:37.151Z,66.53
2022-10-13T11:39:28.240Z,66.25
2022-10-13T11:42:11.930Z,65.74
2022-10-13T11:45:13.445Z,65.68
2022-10-13T11:48:12.913Z,64.87
2022-10-13T11:51:23.644Z,64.96
2022-10-13T11:54:23.598Z,64.69
2022-10-13T11:56:53.858Z,65.08
2022-10-13T11:59:31.753Z,65.01
2022-10-13T12:02:18.961Z,65.36
2022-10-13T12:05:08.838Z,65.07
2022-10-13T12:07:41.077Z,64.55
2022-10-13T12:10:20.091Z,65.18
2022-10-13T12:12:51.365Z,64.60
2022-10-13T12:15:41.084Z,64.94
2022-10-13T12:18:25.079Z,64.75
2022-10-13T12:21:20.186Z,64.32
2022-10-13T12:23:50.885Z,64.03
2022-10-13T12:26:22.807Z,64.01
2022-10-13T12:29:00.771Z,63.67
2022-10-13T12:31:38.264Z,63.46
2022-10-13T12:34:18.505Z,63.66
2022-10-13T12:39:22.040Z,63.57
2022-10-13T12:41:50.708Z,63.34
2022-10-13T12:44:22.470Z,63.13
2022-10-13T12:46:52.487Z,62.33
2022-10-13T12:51:52.474Z,62.48
2022-10-13T12:54:32.680Z,61.91
2022-10-13T12:57:05.143Z,61.22
2022-10-13T12:59:34.497Z,60.88
2022-10-13T13:02:19.146Z,60.14
2022-10-13T13:04:47.093Z,58.27
2022-10-13T13:07:37.177Z,57.65
2022-10-13T13:10:07.718Z,55.47
2022-10-13T13:12:36.852Z,56.18
2022-10-13T13:15:26.898Z,56.09
2022-10-13T13:17:59.327Z,56.86
2022-10-13T13:20:33.798Z,55.50
2022-10-13T13:23:01.506Z,55.70
2022-10-13T13:25:29.067Z,54.80
2022-10-13T13:27:56.807Z,54.11
2022-10-13T13:30:24.575Z,54.75
2022-10-13T13:32:52.189Z,54.64
2022-10-13T13:35:20.239Z,54.50
2022-10-13T13:37:50.849Z,53.86
2022-10-13T13:40:26.473Z,54.53
2022-10-13T13:42:54.877Z,54.18
2022-10-13T13:45:25.442Z,53.67
2022-10-13T13:47:57.955Z,54.15
2022-10-13T13:50:33.923Z,51.52
2022-10-13T13:53:01.614Z,52.02
2022-10-13T13:55:30.014Z,52.21
2022-10-13T13:57:58.647Z,52.22
2022-10-13T14:00:26.157Z,50.55
2022-10-13T14:02:57.615Z,48.58
2022-10-13T14:05:25.530Z,48.51
2022-10-13T14:07:55.059Z,48.00
2022-10-13T14:10:22.721Z,46.28
2022-10-13T14:12:51.423Z,46.33
2022-10-13T14:15:19.137Z,47.24
2022-10-13T14:17:46.781Z,47.59
2022-10-13T14:20:14.399Z,46.70
2022-10-13T14:22:42.294Z,46.63
2022-10-13T14:25:10.780Z,47.95
2022-10-13T14:27:38.357Z,48.07
2022-10-13T14:30:08.709Z,48.35
2022-10-13T14:32:37.204Z,48.09
2022-10-13T14:35:05.568Z,48.51
2022-10-13T14:37:34.130Z,47.81
2022-10-13T14:40:02.032Z,47.36
2022-10-13T14:42:29.609Z,48.07
2022-10-13T14:44:57.146Z,48.66
2022-10-13T14:47:24.653Z,49.00
2022-10-13T14:49:52.301Z,49.12
2022-10-13T14:52:19.817Z,49.27
2022-10-13T14:54:47.521Z,49.35
2022-10-13T14:57:16.291Z,49.55
2022-10-13T14:59:44.070Z,49.88
2022-10-13T15:02:12.977Z,50.01
2022-10-13T15:04:45.992Z,50.31
2022-10-13T15:07:13.483Z,50.44
2022-10-13T15:09:52.916Z,50.59
2022-10-13T15:12:21.340Z,50.60
2022-10-13T15:14:49.076Z,50.70
2022-10-13T15:17:16.581Z,50.80
2022-10-13T15:19:44.216Z,50.91
2022-10-13T15:22:11.987Z,51.08
2022-10-13T15:24:39.454Z,51.08
2022-10-13T15:27:06.973Z,51.33
2022-10-13T15:29:34.844Z,51.33
2022-10-13T15:32:11.071Z,51.47
2022-10-13T15:34:41.645Z,51.61
2022-10-13T15:37:09.126Z,51.83
2022-10-13T15:39:36.957Z,51.85
2022-10-13T15:42:05.289Z,51.98
2022-10-13T15:44:51.019Z,52.26
2022-10-13T15:47:20.278Z,52.41
2022-10-13T15:49:47.757Z,52.55
2022-10-13T15:52:15.388Z,52.80
2022-10-13T15:54:42.993Z,53.10
2022-10-13T15:57:10.483Z,53.28
2022-10-13T15:59:37.970Z,53.50
2022-10-13T16:02:05.457Z,53.65
2022-10-13T16:04:37.516Z,53.77
2022-10-13T16:07:05.354Z,53.83
2022-10-13T16:09:33.005Z,53.96
2022-10-13T16:12:00.661Z,54.12
2022-10-13T16:14:28.180Z,54.25
2022-10-13T16:16:57.967Z,54.46
2022-10-13T16:19:25.572Z,54.46
2022-10-13T16:21:53.077Z,54.64
2022-10-13T16:24:21.005Z,54.73
2022-10-13T16:26:48.521Z,54.86
2022-10-13T16:29:16.164Z,55.01
2022-10-13T16:31:44.152Z,55.26
2022-10-13T16:34:11.686Z,55.31
2022-10-13T16:36:39.180Z,55.52
2022-10-13T16:39:06.732Z,55.68
2022-10-13T16:41:34.801Z,55.86
2022-10-13T16:44:02.342Z,55.95
2022-10-13T16:46:29.899Z,56.12
2022-10-13T16:48:57.615Z,56.24
2022-10-13T16:51:26.552Z,56.44
2022-10-13T16:54:01.191Z,56.54
2022-10-13T16:56:31.634Z,56.70
2022-10-13T16:59:04.674Z,56.77
2022-10-13T17:01:34.365Z,56.97
2022-10-13T17:04:03.278Z,57.23
2022-10-13T17:06:30.871Z,57.41
2022-10-13T17:09:00.501Z,57.57
2022-10-13T17:11:30.116Z,57.67
2022-10-13T17:13:59.339Z,57.74
2022-10-13T17:16:31.859Z,57.93
2022-10-13T17:18:59.826Z,57.92
2022-10-13T17:21:43.988Z,58.09
2022-10-13T17:24:11.771Z,58.19
2022-10-13T17:26:39.562Z,58.34
2022-10-13T17:29:07.080Z,58.35
2022-10-13T17:31:34.602Z,58.42
2022-10-13T17:34:02.302Z,58.56
2022-10-13T17:36:34.438Z,58.78
2022-10-13T17:39:11.248Z,58.89
2022-10-13T17:41:41.982Z,59.04
2022-10-13T17:44:10.034Z,59.27
2022-10-13T17:46:39.272Z,59.35
2022-10-13T17:49:11.181Z,59.37
2022-10-13T17:51:39.781Z,59.53
2022-10-13T17:54:11.599Z,59.72
2022-10-13T17:56:42.298Z,60.01
2022-10-13T17:59:10.215Z,60.21
2022-10-13T18:01:38.491Z,60.33
2022-10-13T18:04:09.862Z,60.45
2022-10-13T18:06:40.511Z,60.48
2022-10-13T18:09:14.059Z,60.78
2022-10-13T18:11:49.479Z,61.04
2022-10-13T18:14:20.917Z,61.11
2022-10-13T18:16:50.849Z,61.17
2022-10-13T18:19:18.965Z,61.28
2022-10-13T18:21:46.675Z,61.24
2022-10-13T18:24:14.377Z,61.31
2022-10-13T18:26:42.001Z,61.47
2022-10-13T18:29:11.836Z,61.62
2022-10-13T18:31:41.125Z,61.73
2022-10-13T18:34:15.854Z,61.77
2022-10-13T18:36:47.246Z,62.12
2022-10-13T18:39:18.411Z,62.18
2022-10-13T18:41:47.338Z,62.27
2022-10-13T18:44:15.892Z,62.52
2022-10-13T18:46:43.791Z,62.98
2022-10-13T18:49:14.420Z,62.89
2022-10-13T18:51:42.771Z,63.19
2022-10-13T18:54:10.969Z,63.35
2022-10-13T18:56:38.547Z,63.51
2022-10-13T18:59:07.954Z,63.50
2022-10-13T19:01:37.155Z,63.85
2022-10-13T19:04:05.699Z,64.04
2022-10-13T19:06:33.706Z,64.07
2022-10-13T19:09:04.311Z,64.35
2022-10-13T19:11:35.484Z,64.37
2022-10-13T19:14:05.617Z,64.47
2022-10-13T19:16:36.739Z,64.53
2022-10-13T19:19:04.628Z,64.77
2022-10-13T19:21:32.686Z,64.89
2022-10-13T19:24:00.963Z,65.09
2022-10-13T19:26:32.624Z,65.15
2022-10-13T19:29:04.261Z,65.14
2022-10-13T19:31:33.441Z,65.21
2022-10-13T19:34:01.758Z,65.08
2022-10-13T19:36:38.933Z,65.19
2022-10-13T19:39:17.098Z,65.18
2022-10-13T19:41:45.961Z,65.53
2022-10-13T19:44:15.659Z,65.68
2022-10-13T19:46:44.891Z,65.71
2022-10-13T19:49:15.492Z,65.90
2022-10-13T19:51:46.637Z,65.86
2022-10-13T19:54:14.966Z,65.80
2022-10-13T19:56:48.228Z,65.89
2022-10-13T19:59:17.703Z,65.89
2022-10-13T20:01:45.819Z,65.96
2022-10-13T20:04:15.688Z,65.96
2022-10-13T20:06:45.708Z,65.99
2022-10-13T20:09:13.892Z,65.98
2022-10-13T20:11:44.930Z,66.01
2022-10-13T20:14:13.528Z,66.13
2022-10-13T20:16:41.508Z,66.14
2022-10-13T20:19:12.791Z,66.19
2022-10-13T20:21:41.064Z,66.33
2022-10-13T20:24:12.994Z,66.45
2022-10-13T20:26:40.953Z,66.54
2022-10-13T20:29:08.863Z,66.48
2022-10-13T20:31:36.854Z,66.54
2022-10-13T20:34:04.546Z,66.66
2022-10-13T20:36:38.294Z,66.77
2022-10-13T20:39:06.810Z,66.84
2022-10-13T20:41:35.381Z,67.09
2022-10-13T20:44:03.709Z,66.95
2022-10-13T20:46:33.690Z,67.01
2022-10-13T20:49:17.359Z,67.09
2022-10-13T20:51:45.011Z,67.16
2022-10-13T20:54:14.756Z,67.17
2022-10-13T20:56:43.088Z,67.25
2022-10-13T20:59:14.354Z,67.35
2022-10-13T21:01:42.727Z,67.37
2022-10-13T21:04:11.115Z,67.45
2022-10-13T21:06:40.921Z,67.78
2022-10-13T21:09:09.253Z,67.87
2022-10-13T21:11:39.516Z,67.79
2022-10-13T21:14:09.453Z,67.97
2022-10-13T21:16:39.952Z,68.20
2022-10-13T21:19:09.729Z,68.22
2022-10-13T21:21:38.101Z,68.40
2022-10-13T21:24:07.228Z,68.54
2022-10-13T21:26:35.299Z,68.71
2022-10-13T21:29:03.509Z,68.61
2022-10-13T21:31:32.496Z,68.80
2022-10-13T21:34:00.817Z,68.90
2022-10-13T21:36:31.009Z,68.93
2022-10-13T21:39:01.754Z,69.04
2022-10-13T21:41:30.624Z,69.15
2022-10-13T21:43:58.624Z,69.12
2022-10-13T21:46:32.740Z,69.17
2022-10-13T21:49:02.725Z,69.16
2022-10-13T21:51:33.771Z,69.32
2022-10-13T21:54:05.320Z,69.38
2022-10-13T21:56:33.978Z,69.46
2022-10-13T21:59:02.299Z,69.60
2022-10-13T22:01:30.115Z,69.55
2022-10-13T22:04:01.621Z,69.68
2022-10-13T22:06:31.631Z,69.82
2022-10-13T22:09:01.273Z,69.99
2022-10-13T22:11:31.058Z,70.18
2022-10-13T22:13:59.713Z,70.19
2022-10-13T22:16:31.819Z,70.07
2022-10-13T22:18:59.522Z,70.28
2022-10-13T22:21:30.485Z,70.26
2022-10-13T22:24:01.369Z,70.62
2022-10-13T22:26:31.738Z,70.48
2022-10-13T22:29:01.235Z,70.71
2022-10-13T22:31:30.592Z,71.13
2022-10-13T22:33:58.825Z,71.04
2022-10-13T22:36:27.012Z,71.08
2022-10-13T22:38:57.382Z,71.18
2022-10-13T22:41:25.808Z,71.25
2022-10-13T22:43:57.202Z,71.33
2022-10-13T22:46:27.927Z,71.41
2022-10-13T22:48:56.665Z,71.43
2022-10-13T22:51:27.354Z,71.54
2022-10-13T22:53:56.144Z,71.58
2022-10-13T22:56:26.740Z,71.59
2022-10-13T22:58:57.611Z,71.74
2022-10-13T23:01:26.264Z,71.79
2022-10-13T23:03:56.100Z,71.91
2022-10-13T23:06:27.556Z,72.01
2022-10-13T23:08:55.553Z,72.11
2022-10-13T23:11:23.350Z,72.04
2022-10-13T23:13:51.036Z,72.03
2022-10-13T23:16:24.158Z,72.13
2022-10-13T23:18:52.727Z,72.45
2022-10-13T23:21:28.596Z,72.55
2022-10-13T23:24:01.557Z,72.45
2022-10-13T23:26:30.292Z,72.68
2022-10-13T23:28:59.017Z,72.83
2022-10-13T23:31:27.639Z,72.80
2022-10-13T23:33:56.155Z,72.84
2022-10-13T23:36:27.111Z,72.90
2022-10-13T23:38:59.733Z,72.96
2022-10-13T23:41:29.162Z,73.04
2022-10-13T23:43:57.231Z,73.04
2022-10-13T23:46:25.437Z,73.07
2022-10-13T23:48:53.032Z,73.11
2022-10-13T23:51:24.003Z,73.22
2022-10-13T23:53:52.252Z,73.29
2022-10-13T23:56:20.449Z,73.26
2022-10-13T23:58:49.022Z,73.37
